Time;durP1;ratioP1;P1;durP2;ratioP2;P2;SDS_P1;SDS_P2;PMS_P1;PMS_P2;Temp;Humidity;BMP_temperature;BMP_pressure;BME280_temperature;BME280_humidity;BME280_pressure;Samples;Min_cycle;Max_cycle;Signal;HPM_P1;HPM_P2
2023/07/27 00:00:45;;;;;;;1.88;1.60;;;12.50;99.90;;;;;;5027347;28;20033;-60
2023/07/27 00:03:11;;;;;;;4.13;2.20;;;12.40;99.90;;;;;;5047980;28;20031;-61
2023/07/27 00:05:36;;;;;;;2.22;1.67;;;12.30;99.90;;;;;;5028777;28;20116;-61
2023/07/27 00:08:02;;;;;;;2.85;2.20;;;12.30;99.90;;;;;;5023393;28;20053;-61
2023/07/27 00:10:28;;;;;;;2.65;1.98;;;12.20;99.90;;;;;;5047295;28;20582;-59
2023/07/27 00:12:54;;;;;;;1.88;1.67;;;12.20;99.90;;;;;;5027369;28;20029;-61
2023/07/27 00:15:19;;;;;;;2.35;1.95;;;12.10;99.90;;;;;;5051189;28;20146;-61
2023/07/27 00:17:45;;;;;;;3.92;1.73;;;12.00;99.90;;;;;;5030654;28;20017;-61
2023/07/27 00:20:11;;;;;;;2.58;2.05;;;12.00;99.90;;;;;;5050921;28;20080;-61
2023/07/27 00:22:36;;;;;;;2.00;1.77;;;11.90;99.90;;;;;;5030541;28;20033;-60
2023/07/27 00:25:02;;;;;;;2.42;1.92;;;11.90;99.90;;;;;;5051005;28;20091;-61
2023/07/27 00:27:27;;;;;;;2.80;1.70;;;11.80;99.90;;;;;;5030304;28;20034;-60
2023/07/27 00:29:53;;;;;;;2.05;1.52;;;11.80;99.90;;;;;;5048981;28;20504;-60
2023/07/27 00:32:18;;;;;;;2.30;1.70;;;11.70;99.90;;;;;;5042975;28;20061;-60
2023/07/27 00:34:44;;;;;;;2.78;2.00;;;11.70;99.90;;;;;;5032255;28;20115;-61
2023/07/27 00:37:12;;;;;;;1.70;1.55;;;11.70;99.90;;;;;;5037181;28;20112;-61
2023/07/27 00:39:38;;;;;;;3.40;1.48;;;11.60;99.90;;;;;;5051040;28;20025;-61
2023/07/27 00:42:04;;;;;;;3.50;1.88;;;11.60;99.90;;;;;;5030261;28;20041;-60
2023/07/27 00:44:30;;;;;;;2.63;1.75;;;11.60;99.90;;;;;;5049489;28;20401;-61
2023/07/27 00:46:55;;;;;;;2.05;1.77;;;11.50;99.90;;;;;;5039850;28;20037;-60
2023/07/27 00:49:21;;;;;;;2.70;2.00;;;11.50;99.90;;;;;;5031994;28;20036;-61
2023/07/27 00:51:47;;;;;;;2.70;1.92;;;11.50;99.90;;;;;;5048504;28;20156;-60
2023/07/27 00:54:15;;;;;;;3.67;2.10;;;11.50;99.90;;;;;;5031658;28;20030;-60
2023/07/27 00:56:40;;;;;;;2.70;2.08;;;11.40;99.90;;;;;;5048856;28;20521;-60
2023/07/27 00:59:06;;;;;;;2.30;1.65;;;11.40;99.90;;;;;;5031707;28;20181;-60
2023/07/27 01:01:33;;;;;;;2.58;1.90;;;11.30;99.90;;;;;;5048299;28;20524;-60
2023/07/27 01:03:58;;;;;;;4.35;2.20;;;11.30;99.90;;;;;;5051050;28;20021;-60
2023/07/27 01:06:24;;;;;;;2.47;1.95;;;11.20;99.90;;;;;;5034993;28;20021;-58
2023/07/27 01:08:51;;;;;;;2.45;1.70;;;11.20;99.90;;;;;;5042128;28;20048;-60
2023/07/27 01:11:28;;;;;;;3.30;1.80;;;11.20;99.90;;;;;;5034201;28;20135;-60
2023/07/27 01:14:08;;;;;;;2.53;1.77;;;11.10;99.90;;;;;;5050879;28;20478;-61
2023/07/27 01:16:44;;;;;;;2.40;2.00;;;11.10;99.90;;;;;;5023002;28;20040;-60
2023/07/27 01:19:45;;;;;;;3.00;2.25;;;11.00;99.90;;;;;;5049294;28;20025;-61
2023/07/27 01:23:13;;;;;;;3.53;1.85;;;11.00;99.90;;;;;;5032857;28;20045;-60
2023/07/27 01:26:07;;;;;;;2.47;1.90;;;10.90;99.90;;;;;;4993040;28;20042;-61
2023/07/27 01:28:57;;;;;;;2.35;1.77;;;10.90;99.90;;;;;;5030638;28;20160;-60
2023/07/27 01:31:27;;;;;;;4.45;2.53;;;10.80;99.90;;;;;;5036338;28;20568;-60
2023/07/27 01:33:59;;;;;;;3.85;2.20;;;10.70;99.90;;;;;;5050311;28;20028;-60
2023/07/27 01:36:28;;;;;;;2.38;2.13;;;10.70;99.90;;;;;;5034233;28;20076;-60
2023/07/27 01:38:59;;;;;;;3.28;2.25;;;10.70;99.90;;;;;;5050390;28;20033;-60
2023/07/27 01:41:26;;;;;;;3.00;2.50;;;10.60;99.90;;;;;;5020155;28;20021;-61
2023/07/27 01:43:52;;;;;;;2.40;2.10;;;10.60;99.90;;;;;;5050242;28;20029;-61
2023/07/27 01:46:18;;;;;;;2.92;2.15;;;10.60;99.90;;;;;;5033532;28;20029;-61
2023/07/27 01:48:45;;;;;;;2.45;1.80;;;10.50;99.90;;;;;;5050406;28;20108;-60
2023/07/27 01:51:12;;;;;;;3.13;2.00;;;10.50;99.90;;;;;;5030890;28;20029;-61
2023/07/27 01:53:40;;;;;;;3.50;2.13;;;10.40;99.90;;;;;;5050027;28;20098;-60
2023/07/27 01:56:07;;;;;;;2.50;2.10;;;10.40;99.90;;;;;;5031708;28;20127;-60
2023/07/27 01:58:35;;;;;;;2.50;1.98;;;10.40;99.90;;;;;;5050026;28;20374;-60
2023/07/27 02:01:01;;;;;;;2.10;1.90;;;10.30;99.90;;;;;;5029544;28;20030;-60
2023/07/27 02:03:27;;;;;;;2.88;2.30;;;10.30;99.90;;;;;;5049946;28;20032;-60
2023/07/27 02:05:52;;;;;;;2.42;2.17;;;10.20;99.90;;;;;;5029497;28;20464;-60
2023/07/27 02:08:17;;;;;;;3.47;1.85;;;10.20;99.90;;;;;;5044123;28;20060;-60
2023/07/27 02:10:50;;;;;;;3.35;2.40;;;10.20;99.90;;;;;;5030043;28;20066;-61
2023/07/27 02:13:40;;;;;;;4.28;1.90;;;10.20;99.90;;;;;;5010201;28;20029;-60
2023/07/27 02:16:12;;;;;;;5.18;2.50;;;10.10;99.90;;;;;;5014104;28;20395;-60
2023/07/27 02:18:39;;;;;;;4.57;2.03;;;10.10;99.90;;;;;;5049517;28;20430;-60
2023/07/27 02:21:07;;;;;;;3.90;2.45;;;10.10;99.90;;;;;;5031083;28;20033;-60
2023/07/27 02:23:33;;;;;;;3.88;2.58;;;10.10;99.90;;;;;;5049345;28;20021;-60
2023/07/27 02:25:59;;;;;;;4.63;3.00;;;10.10;99.90;;;;;;5029998;28;20033;-60
2023/07/27 02:28:28;;;;;;;4.20;2.70;;;10.00;99.90;;;;;;5049588;28;20031;-61
2023/07/27 02:30:53;;;;;;;3.17;2.38;;;10.00;99.90;;;;;;5037439;28;20041;-62
2023/07/27 02:33:19;;;;;;;3.53;2.70;;;10.00;99.90;;;;;;5049436;28;20028;-60
2023/07/27 02:35:44;;;;;;;3.58;2.00;;;10.00;99.90;;;;;;5043080;28;20033;-60
2023/07/27 02:38:10;;;;;;;3.53;2.60;;;9.90;99.90;;;;;;5029765;28;20087;-61
2023/07/27 02:40:35;;;;;;;2.17;1.58;;;9.90;99.90;;;;;;5025898;28;20045;-64
2023/07/27 02:43:02;;;;;;;5.28;2.28;;;9.90;99.90;;;;;;5048402;28;20053;-64
2023/07/27 02:45:27;;;;;;;2.40;2.20;;;9.90;99.90;;;;;;5027530;28;20029;-63
2023/07/27 02:47:53;;;;;;;5.28;2.53;;;9.90;99.90;;;;;;5048061;28;20040;-64
2023/07/27 02:50:18;;;;;;;3.70;2.45;;;9.80;99.90;;;;;;5027834;28;20037;-61
2023/07/27 02:52:44;;;;;;;2.38;2.17;;;9.80;99.90;;;;;;5048206;28;20270;-60
2023/07/27 02:55:10;;;;;;;4.55;2.10;;;9.80;99.90;;;;;;5027381;28;20033;-61
2023/07/27 02:57:36;;;;;;;2.42;2.22;;;9.80;99.90;;;;;;5048252;28;20347;-60
2023/07/27 03:00:02;;;;;;;2.97;2.42;;;9.80;99.90;;;;;;5037590;28;20078;-60
2023/07/27 03:02:27;;;;;;;4.80;2.92;;;9.70;99.90;;;;;;5029174;28;20068;-61
2023/07/27 03:04:54;;;;;;;4.45;2.75;;;9.70;99.90;;;;;;5046104;28;20059;-61
2023/07/27 03:07:19;;;;;;;2.95;2.30;;;9.80;99.90;;;;;;5029137;28;20502;-61
2023/07/27 03:09:52;;;;;;;3.28;2.80;;;9.70;99.90;;;;;;5045931;28;20157;-60
2023/07/27 03:12:17;;;;;;;3.55;2.92;;;9.70;99.90;;;;;;5048754;28;20036;-61
2023/07/27 03:14:43;;;;;;;3.28;2.65;;;9.70;99.90;;;;;;5034615;28;20104;-60
2023/07/27 03:17:08;;;;;;;3.65;2.92;;;9.70;99.90;;;;;;5048409;28;20027;-60
2023/07/27 03:19:34;;;;;;;5.32;2.70;;;9.70;99.90;;;;;;5033627;28;20094;-60
2023/07/27 03:22:00;;;;;;;3.85;3.00;;;9.70;99.90;;;;;;5048582;28;20328;-60
2023/07/27 03:24:26;;;;;;;4.50;2.72;;;9.70;99.90;;;;;;5032140;28;20024;-60
2023/07/27 03:26:51;;;;;;;3.50;3.08;;;9.70;99.90;;;;;;5048097;28;20072;-61
2023/07/27 03:29:17;;;;;;;6.43;3.60;;;9.70;99.90;;;;;;5030940;28;20078;-60
2023/07/27 03:31:42;;;;;;;4.95;3.13;;;9.70;99.90;;;;;;5048379;28;20050;-60
2023/07/27 03:34:08;;;;;;;4.35;2.85;;;9.80;99.90;;;;;;5029464;28;20057;-60
2023/07/27 03:36:33;;;;;;;4.60;3.10;;;9.80;99.90;;;;;;5048375;28;20025;-61
2023/07/27 03:38:59;;;;;;;4.82;3.17;;;9.80;99.90;;;;;;5028498;28;20486;-59
2023/07/27 03:41:24;;;;;;;4.45;3.08;;;9.90;99.90;;;;;;5042186;28;20021;-61
2023/07/27 03:43:50;;;;;;;5.97;3.28;;;9.90;99.90;;;;;;5026857;28;20029;-59
2023/07/27 03:46:15;;;;;;;5.45;3.08;;;9.90;99.90;;;;;;5048328;28;20040;-61
2023/07/27 03:48:41;;;;;;;3.85;3.15;;;10.00;99.90;;;;;;5032334;28;20030;-60
2023/07/27 03:51:07;;;;;;;4.50;3.30;;;10.00;99.90;;;;;;5031268;28;20028;-61
2023/07/27 03:53:32;;;;;;;3.63;3.08;;;10.00;99.90;;;;;;5051390;28;20036;-61
2023/07/27 03:56:01;;;;;;;4.15;3.05;;;10.10;99.90;;;;;;5031020;28;20034;-61
2023/07/27 03:58:26;;;;;;;3.60;3.20;;;10.10;99.90;;;;;;5051679;28;20115;-61
2023/07/27 04:00:52;;;;;;;3.92;3.47;;;10.10;99.90;;;;;;5030667;28;20175;-61
2023/07/27 04:03:17;;;;;;;4.00;3.10;;;10.20;99.90;;;;;;5051422;28;20511;-60
2023/07/27 04:05:43;;;;;;;4.07;3.47;;;10.30;99.90;;;;;;5030863;28;20036;-60
2023/07/27 04:08:10;;;;;;;5.97;3.47;;;10.80;99.90;;;;;;5050079;28;20029;-61
2023/07/27 04:10:35;;;;;;;4.55;3.30;;;11.50;99.90;;;;;;5030554;28;20064;-60
2023/07/27 04:13:01;;;;;;;3.97;3.15;;;12.20;99.90;;;;;;5051444;28;20423;-61
2023/07/27 04:15:26;;;;;;;3.78;2.78;;;13.00;99.90;;;;;;5030649;28;20628;-60
2023/07/27 04:17:52;;;;;;;2.38;2.15;;;13.80;99.90;;;;;;5051000;28;20033;-62
2023/07/27 04:20:17;;;;;;;2.55;2.03;;;14.50;99.90;;;;;;5030655;28;20397;-61
2023/07/27 04:22:43;;;;;;;2.20;2.00;;;15.20;99.90;;;;;;5051056;28;20055;-62
2023/07/27 04:25:08;;;;;;;2.33;2.08;;;15.90;99.90;;;;;;5041086;28;20135;-62
2023/07/27 04:27:34;;;;;;;2.22;1.73;;;16.60;99.90;;;;;;5032285;28;20041;-61
2023/07/27 04:30:00;;;;;;;3.70;1.70;;;17.20;99.90;;;;;;5048817;28;20551;-61
2023/07/27 04:32:25;;;;;;;2.17;1.70;;;17.90;99.90;;;;;;5051846;28;20049;-61
2023/07/27 04:34:51;;;;;;;2.05;1.83;;;18.50;96.80;;;;;;5038387;28;20589;-61
2023/07/27 04:37:17;;;;;;;2.75;1.70;;;19.10;96.90;;;;;;5032127;28;20034;-61
2023/07/27 04:39:42;;;;;;;1.77;1.67;;;19.60;93.80;;;;;;5046338;28;20029;-61
2023/07/27 04:42:08;;;;;;;2.10;1.90;;;20.10;92.20;;;;;;5051323;28;20017;-62
2023/07/27 04:44:33;;;;;;;2.10;1.90;;;20.70;92.00;;;;;;5035949;28;20025;-61
2023/07/27 04:46:59;;;;;;;1.67;1.58;;;21.20;90.00;;;;;;5051348;28;20769;-61
2023/07/27 04:49:24;;;;;;;2.35;1.50;;;21.70;87.50;;;;;;5034791;28;20040;-61
2023/07/27 04:51:50;;;;;;;1.95;1.75;;;22.20;84.00;;;;;;5050952;28;20117;-61
2023/07/27 04:54:15;;;;;;;2.20;1.85;;;22.60;81.50;;;;;;5033418;28;20049;-61
2023/07/27 04:56:41;;;;;;;2.03;1.60;;;23.00;80.30;;;;;;5051227;28;20070;-61
2023/07/27 04:59:06;;;;;;;2.15;1.95;;;23.50;78.40;;;;;;5031426;28;20029;-61
2023/07/27 05:01:32;;;;;;;1.58;1.40;;;23.90;74.90;;;;;;5050915;28;20028;-61
2023/07/27 05:03:57;;;;;;;1.50;1.40;;;24.30;73.30;;;;;;5031048;28;20086;-61
2023/07/27 05:06:23;;;;;;;1.70;1.60;;;24.70;69.00;;;;;;5050959;28;20055;-61
2023/07/27 05:08:48;;;;;;;1.70;1.42;;;25.00;65.50;;;;;;5031178;28;20033;-61
2023/07/27 05:11:14;;;;;;;1.67;1.27;;;25.40;64.40;;;;;;5048942;28;20037;-61
2023/07/27 05:13:39;;;;;;;2.38;1.70;;;25.90;62.70;;;;;;5031352;28;20057;-61
2023/07/27 05:16:05;;;;;;;3.13;1.85;;;26.30;60.90;;;;;;5029662;28;20419;-61
2023/07/27 05:18:30;;;;;;;1.88;1.50;;;26.50;56.90;;;;;;5049742;28;20033;-61
2023/07/27 05:20:56;;;;;;;1.67;1.52;;;26.90;54.40;;;;;;5029685;28;20038;-61
2023/07/27 05:23:22;;;;;;;2.63;1.75;;;27.20;51.50;;;;;;5050277;28;20033;-56
2023/07/27 05:25:48;;;;;;;1.42;1.33;;;27.50;48.00;;;;;;5029324;28;20245;-57
2023/07/27 05:28:14;;;;;;;2.72;1.60;;;27.80;47.10;;;;;;5050073;28;20171;-54
2023/07/27 05:30:41;;;;;;;1.70;1.40;;;28.00;44.30;;;;;;5036896;28;20503;-58
2023/07/27 05:33:06;;;;;;;1.63;1.30;;;28.20;41.50;;;;;;5030827;28;20040;-53
2023/07/27 05:35:32;;;;;;;1.65;1.25;;;28.50;40.60;;;;;;5033854;28;20025;-58
2023/07/27 05:37:57;;;;;;;1.42;1.33;;;28.90;38.00;;;;;;5049718;28;20489;-54
2023/07/27 05:40:23;;;;;;;1.30;1.20;;;29.10;34.60;;;;;;5036630;28;20037;-56
2023/07/27 05:42:48;;;;;;;1.42;1.30;;;29.30;36.00;;;;;;5030643;28;20088;-55
2023/07/27 05:45:14;;;;;;;2.03;1.67;;;29.30;32.90;;;;;;5036230;28;20037;-57
2023/07/27 05:47:39;;;;;;;2.28;1.55;;;29.40;31.30;;;;;;5049529;28;20067;-54
2023/07/27 05:50:06;;;;;;;1.38;1.25;;;29.30;31.10;;;;;;5039480;28;20471;-55
2023/07/27 05:52:32;;;;;;;1.38;1.27;;;29.70;30.00;;;;;;5030550;28;20037;-56
2023/07/27 05:54:57;;;;;;;2.75;1.65;;;30.30;29.40;;;;;;5047404;28;20032;-56
2023/07/27 05:57:23;;;;;;;1.73;1.20;;;30.60;28.50;;;;;;5030669;28;20095;-55
2023/07/27 05:59:49;;;;;;;1.40;1.20;;;30.90;24.60;;;;;;5047052;28;20025;-54
2023/07/27 06:02:15;;;;;;;1.58;1.35;;;31.10;25.50;;;;;;5031939;28;20132;-55
2023/07/27 06:04:40;;;;;;;2.47;1.63;;;31.40;23.80;;;;;;5050352;28;20499;-56
2023/07/27 06:07:06;;;;;;;2.20;1.70;;;31.70;22.80;;;;;;5030841;28;20033;-55
2023/07/27 06:09:32;;;;;;;1.60;1.33;;;31.90;21.60;;;;;;5050138;28;20389;-57
2023/07/27 06:11:57;;;;;;;2.00;1.17;;;32.50;21.30;;;;;;5027810;28;20037;-55
2023/07/27 06:14:23;;;;;;;1.35;1.20;;;32.90;20.40;;;;;;5030146;28;20029;-53
2023/07/27 06:16:49;;;;;;;1.58;1.40;;;33.10;18.60;;;;;;5049038;28;20029;-56
2023/07/27 06:19:14;;;;;;;1.92;1.33;;;33.20;17.80;;;;;;5028426;28;20033;-55
2023/07/27 06:21:40;;;;;;;1.30;1.20;;;33.10;18.10;;;;;;5049217;28;20037;-54
2023/07/27 06:24:07;;;;;;;2.08;1.30;;;33.50;17.50;;;;;;5028606;28;20115;-54
2023/07/27 06:26:32;;;;;;;1.83;1.40;;;33.60;16.90;;;;;;5049162;28;20037;-57
2023/07/27 06:28:58;;;;;;;1.40;1.17;;;33.60;16.30;;;;;;5028625;28;20107;-55
2023/07/27 06:31:33;;;;;;;2.17;1.52;;;33.70;14.90;;;;;;5106683;27;20384;-57
2023/07/27 06:33:58;;;;;;;1.67;1.40;;;33.40;15.10;;;;;;5126578;27;20028;-55
2023/07/27 06:36:24;;;;;;;1.60;1.50;;;33.10;14.80;;;;;;5105491;28;20170;-55
2023/07/27 06:38:49;;;;;;;1.67;1.55;;;32.70;14.80;;;;;;5126146;28;20035;-56
2023/07/27 06:41:15;;;;;;;1.83;1.48;;;32.00;14.00;;;;;;5100322;28;20066;-56
2023/07/27 06:43:40;;;;;;;1.42;1.30;;;31.90;15.00;;;;;;5126287;27;20038;-52
2023/07/27 06:46:06;;;;;;;3.63;1.48;;;32.10;14.40;;;;;;5105155;28;20031;-54
2023/07/27 06:48:32;;;;;;;2.55;1.60;;;32.70;13.50;;;;;;5126079;27;20036;-55
2023/07/27 06:50:57;;;;;;;2.53;1.65;;;33.00;13.20;;;;;;5105185;28;20043;-53
2023/07/27 06:53:23;;;;;;;1.75;1.23;;;32.90;11.40;;;;;;5126251;28;20118;-56
2023/07/27 06:55:48;;;;;;;1.88;1.67;;;32.70;12.90;;;;;;5103521;28;20028;-55
2023/07/27 06:58:14;;;;;;;1.58;1.35;;;33.00;12.90;;;;;;5126145;27;20023;-55
2023/07/27 07:00:39;;;;;;;2.03;1.55;;;33.20;12.70;;;;;;5104964;28;20028;-57
2023/07/27 07:03:05;;;;;;;3.78;1.50;;;32.80;12.10;;;;;;5125979;27;20098;-54
2023/07/27 07:05:30;;;;;;;1.55;1.30;;;32.10;12.70;;;;;;5103261;28;20559;-55
2023/07/27 07:07:56;;;;;;;1.50;1.40;;;31.80;13.10;;;;;;5125883;27;20533;-57
2023/07/27 07:10:21;;;;;;;1.67;1.50;;;31.40;13.20;;;;;;5104684;27;20035;-53
2023/07/27 07:12:47;;;;;;;2.20;1.50;;;31.40;12.50;;;;;;5125586;27;20058;-55
2023/07/27 07:15:12;;;;;;;2.58;1.80;;;31.20;12.90;;;;;;5114074;28;20379;-55
2023/07/27 07:17:38;;;;;;;4.63;1.70;;;31.00;12.90;;;;;;5106423;28;20483;-55
2023/07/27 07:20:08;;;;;;;1.55;1.40;;;30.80;13.20;;;;;;5115366;28;20046;-55
2023/07/27 07:22:34;;;;;;;1.50;1.40;;;30.70;13.40;;;;;;5126142;27;20031;-55
2023/07/27 07:25:00;;;;;;;2.15;1.67;;;30.70;13.60;;;;;;5104460;27;20024;-54
2023/07/27 07:27:25;;;;;;;2.53;1.70;;;30.90;13.40;;;;;;5105918;28;20012;-56
2023/07/27 07:29:51;;;;;;;2.45;1.92;;;31.10;12.40;;;;;;5116532;28;20123;-55
2023/07/27 07:32:17;;;;;;;2.50;1.80;;;30.90;11.80;;;;;;5105839;28;20078;-56
2023/07/27 07:34:42;;;;;;;2.67;1.70;;;31.50;12.40;;;;;;5118128;27;20032;-56
2023/07/27 07:37:08;;;;;;;2.78;1.70;;;31.80;12.00;;;;;;5104200;28;20027;-57
2023/07/27 07:39:33;;;;;;;2.50;1.45;;;32.10;11.90;;;;;;5114362;28;20024;-54
2023/07/27 07:42:00;;;;;;;2.20;1.52;;;31.70;12.00;;;;;;5097039;28;20044;-55
2023/07/27 07:44:26;;;;;;;3.05;2.00;;;30.70;12.60;;;;;;5109594;28;20024;-56
2023/07/27 07:46:51;;;;;;;1.95;1.50;;;29.80;12.60;;;;;;5112069;28;20451;-55
2023/07/27 07:49:17;;;;;;;3.90;1.83;;;28.90;13.40;;;;;;5090356;28;20053;-53
2023/07/27 07:51:42;;;;;;;2.38;1.90;;;28.50;13.80;;;;;;5091862;28;20514;-56
2023/07/27 07:54:09;;;;;;;4.30;2.25;;;28.10;13.90;;;;;;5108797;28;20042;-55
2023/07/27 07:56:35;;;;;;;2.63;1.88;;;28.40;14.20;;;;;;5091616;28;20036;-51
2023/07/27 07:59:01;;;;;;;2.33;1.77;;;28.90;13.80;;;;;;5111342;28;20024;-55
2023/07/27 08:01:27;;;;;;;1.75;1.35;;;29.10;13.30;;;;;;5088939;28;20024;-55
2023/07/27 08:03:52;;;;;;;1.92;1.73;;;29.60;13.10;;;;;;5110962;28;20032;-55
2023/07/27 08:06:18;;;;;;;2.22;1.42;;;29.60;13.30;;;;;;5090340;28;20159;-55
2023/07/27 08:08:44;;;;;;;2.75;1.73;;;29.90;13.40;;;;;;5109766;28;20031;-55
2023/07/27 08:11:09;;;;;;;2.17;1.30;;;30.70;12.50;;;;;;5089762;28;20101;-55
2023/07/27 08:13:35;;;;;;;1.92;1.55;;;31.20;12.60;;;;;;5109680;28;20554;-53
2023/07/27 08:16:03;;;;;;;3.38;1.60;;;31.50;11.80;;;;;;5089944;28;20077;-55
2023/07/27 08:18:29;;;;;;;1.73;1.63;;;31.30;12.00;;;;;;5111027;28;20376;-55
2023/07/27 08:20:59;;;;;;;2.65;1.90;;;30.90;12.20;;;;;;5090095;28;20032;-53
2023/07/27 08:23:25;;;;;;;2.00;1.80;;;30.20;12.70;;;;;;5110977;28;20114;-55
2023/07/27 08:25:53;;;;;;;1.70;1.60;;;29.50;13.30;;;;;;5089723;28;20128;-54
2023/07/27 08:28:19;;;;;;;3.65;1.98;;;28.90;13.90;;;;;;5110978;28;20023;-55
2023/07/27 08:30:45;;;;;;;3.10;1.80;;;28.60;14.50;;;;;;5088015;28;20133;-52
2023/07/27 08:33:12;;;;;;;2.17;1.67;;;28.10;14.90;;;;;;5110352;28;20106;-56
2023/07/27 08:35:38;;;;;;;2.38;2.15;;;27.80;15.40;;;;;;5089193;28;20027;-54
2023/07/27 08:38:03;;;;;;;2.22;1.92;;;27.40;15.80;;;;;;5110626;28;20035;-56
2023/07/27 08:40:29;;;;;;;2.67;2.15;;;26.70;16.30;;;;;;5092948;28;20032;-52
2023/07/27 08:42:55;;;;;;;2.17;1.98;;;26.00;17.40;;;;;;5091159;28;20082;-54
2023/07/27 08:45:22;;;;;;;2.97;2.42;;;25.50;18.00;;;;;;5097703;28;20024;-51
2023/07/27 08:47:49;;;;;;;3.97;1.70;;;25.30;18.80;;;;;;5110135;28;20027;-52
2023/07/27 08:50:15;;;;;;;2.15;1.95;;;25.20;18.90;;;;;;5088997;28;20039;-49
2023/07/27 08:52:41;;;;;;;2.30;1.60;;;25.20;19.10;;;;;;5109685;28;20028;-53
2023/07/27 08:55:07;;;;;;;3.45;2.38;;;25.10;19.20;;;;;;5088507;28;20715;-55
2023/07/27 08:57:33;;;;;;;3.15;2.30;;;24.80;20.10;;;;;;5110086;28;20051;-55
2023/07/27 08:59:58;;;;;;;3.72;2.13;;;24.60;20.60;;;;;;5096426;28;20468;-53
2023/07/27 09:02:24;;;;;;;2.80;2.08;;;24.50;20.60;;;;;;5110899;28;20031;-56
2023/07/27 09:04:49;;;;;;;2.50;1.90;;;24.60;20.60;;;;;;5087473;28;20082;-55
2023/07/27 09:07:15;;;;;;;3.53;1.73;;;24.50;21.00;;;;;;5090351;28;20030;-52
2023/07/27 09:09:40;;;;;;;3.40;1.70;;;24.50;21.10;;;;;;5102908;28;20487;-55
2023/07/27 09:12:07;;;;;;;3.72;1.75;;;24.50;21.70;;;;;;5090162;28;20558;-54
2023/07/27 09:14:39;;;;;;;2.35;2.10;;;24.30;22.00;;;;;;5103973;28;20430;-51
2023/07/27 09:17:05;;;;;;;3.10;2.03;;;24.00;22.60;;;;;;5090095;28;20062;-52
2023/07/27 09:19:38;;;;;;;2.33;2.05;;;23.70;22.90;;;;;;5103971;28;20020;-54
2023/07/27 09:22:05;;;;;;;2.40;2.03;;;23.50;23.70;;;;;;5090151;28;20425;-54
2023/07/27 09:24:32;;;;;;;2.60;2.00;;;23.30;24.00;;;;;;5104040;28;20024;-51
2023/07/27 09:26:59;;;;;;;3.20;2.03;;;23.10;24.60;;;;;;5090087;28;20024;-54
2023/07/27 09:29:24;;;;;;;4.78;2.30;;;22.90;24.70;;;;;;5104784;28;20587;-55
2023/07/27 09:31:52;;;;;;;2.83;1.80;;;22.90;24.80;;;;;;5089698;28;20032;-56
2023/07/27 09:34:19;;;;;;;3.22;2.10;;;22.90;25.40;;;;;;5104642;28;20028;-52
2023/07/27 09:36:46;;;;;;;2.85;2.22;;;22.80;25.50;;;;;;5089859;28;20037;-54
2023/07/27 09:39:13;;;;;;;3.45;1.98;;;22.70;25.60;;;;;;5106076;28;20058;-54
2023/07/27 09:41:42;;;;;;;2.45;2.08;;;22.40;26.90;;;;;;5083819;28;20028;-55
2023/07/27 09:44:12;;;;;;;2.25;1.83;;;22.40;26.90;;;;;;5107432;28;20016;-55
2023/07/27 09:46:38;;;;;;;7.57;2.00;;;22.50;27.40;;;;;;5110016;28;20024;-54
2023/07/27 09:49:03;;;;;;;3.95;2.42;;;22.40;26.90;;;;;;5089993;28;20050;-54
2023/07/27 09:51:29;;;;;;;3.55;2.58;;;22.40;27.30;;;;;;5107645;28;20728;-54
2023/07/27 09:53:55;;;;;;;2.85;2.28;;;22.30;28.00;;;;;;5089943;28;20036;-54
2023/07/27 09:56:22;;;;;;;3.13;2.08;;;22.20;27.90;;;;;;5088389;28;20039;-55
2023/07/27 09:58:47;;;;;;;4.20;2.25;;;22.20;28.30;;;;;;5108898;28;20628;-52
2023/07/27 10:01:13;;;;;;;3.45;2.50;;;22.20;28.10;;;;;;5088114;28;20046;-52
2023/07/27 10:03:39;;;;;;;2.58;2.38;;;22.20;28.70;;;;;;5108846;28;20031;-54
2023/07/27 10:06:06;;;;;;;3.35;2.58;;;22.20;28.40;;;;;;5087718;28;20510;-53
2023/07/27 10:08:33;;;;;;;3.10;2.42;;;22.20;28.80;;;;;;5107440;28;20031;-52
2023/07/27 10:11:00;;;;;;;3.40;2.33;;;22.10;28.20;;;;;;5087913;28;20077;-54
2023/07/27 10:13:25;;;;;;;4.07;2.30;;;22.20;28.60;;;;;;5107624;28;20027;-53
2023/07/27 10:15:55;;;;;;;4.82;2.63;;;22.20;28.40;;;;;;5086353;28;20498;-53
2023/07/27 10:18:24;;;;;;;3.97;2.70;;;22.20;28.70;;;;;;5108897;28;20032;-52
2023/07/27 10:20:50;;;;;;;3.45;2.70;;;22.10;28.60;;;;;;5086962;28;20032;-55
2023/07/27 10:23:20;;;;;;;3.42;2.53;;;22.20;28.80;;;;;;5108785;28;20115;-54
2023/07/27 10:25:57;;;;;;;2.78;2.25;;;22.30;28.20;;;;;;5087170;28;20155;-53
2023/07/27 10:28:30;;;;;;;3.13;2.58;;;22.30;28.30;;;;;;5068806;28;20158;-53
2023/07/27 10:31:14;;;;;;;4.22;2.95;;;22.30;28.00;;;;;;5090883;28;20051;-55
2023/07/27 10:33:45;;;;;;;2.45;2.03;;;22.40;28.10;;;;;;5108621;28;20019;-54
2023/07/27 10:36:11;;;;;;;4.45;3.17;;;22.50;27.70;;;;;;5084448;28;20118;-52
2023/07/27 10:38:36;;;;;;;4.07;2.90;;;22.60;27.40;;;;;;5108572;28;20525;-54
2023/07/27 10:41:15;;;;;;;3.17;2.20;;;22.60;27.20;;;;;;5082902;28;20040;-49
2023/07/27 10:44:08;;;;;;;4.78;3.05;;;22.90;27.10;;;;;;5109058;28;20080;-56
2023/07/27 10:46:46;;;;;;;3.03;2.50;;;22.90;26.70;;;;;;5068682;28;20446;-56
2023/07/27 10:49:15;;;;;;;4.97;2.70;;;22.90;26.80;;;;;;5067745;28;20035;-55
2023/07/27 10:51:42;;;;;;;7.50;3.30;;;22.90;26.20;;;;;;5087486;28;20035;-57
2023/07/27 10:54:11;;;;;;;3.83;2.30;;;22.80;26.80;;;;;;5105991;28;20656;-57
2023/07/27 10:56:37;;;;;;;5.03;2.55;;;22.80;27.40;;;;;;5088831;28;20020;-58
2023/07/27 10:59:03;;;;;;;6.47;2.63;;;22.80;27.40;;;;;;5108473;28;20050;-57
2023/07/27 11:01:29;;;;;;;3.53;2.58;;;22.90;27.60;;;;;;5086880;28;20511;-58
2023/07/27 11:03:56;;;;;;;4.78;2.53;;;23.00;27.60;;;;;;5107057;28;20035;-57
2023/07/27 11:06:28;;;;;;;4.18;2.55;;;23.20;28.20;;;;;;5087146;28;20031;-57
2023/07/27 11:08:54;;;;;;;3.35;2.97;;;23.20;28.10;;;;;;5068442;28;20500;-58
2023/07/27 11:11:21;;;;;;;2.50;2.20;;;23.10;28.10;;;;;;5087323;28;20499;-56
2023/07/27 11:13:47;;;;;;;3.03;2.35;;;23.10;28.40;;;;;;5108132;28;20106;-56
2023/07/27 11:16:13;;;;;;;4.03;2.53;;;23.20;28.60;;;;;;5087523;28;20499;-56
2023/07/27 11:18:40;;;;;;;2.85;2.30;;;23.10;28.60;;;;;;5112147;28;20031;-58
2023/07/27 11:21:08;;;;;;;4.25;2.70;;;23.20;29.00;;;;;;5090738;28;20035;-57
2023/07/27 11:23:45;;;;;;;3.05;2.58;;;23.20;29.00;;;;;;5112201;28;20035;-58
2023/07/27 11:26:10;;;;;;;3.03;2.50;;;23.10;29.10;;;;;;5087592;28;20508;-62
2023/07/27 11:28:39;;;;;;;3.47;2.55;;;23.20;29.20;;;;;;5111925;28;20067;-52
2023/07/27 11:31:06;;;;;;;3.50;2.83;;;23.30;29.30;;;;;;5090370;28;20036;-63
2023/07/27 11:33:33;;;;;;;4.22;2.95;;;23.30;29.10;;;;;;5110476;28;20031;-62
2023/07/27 11:36:00;;;;;;;2.47;2.28;;;23.50;29.20;;;;;;5090538;27;20032;-63
2023/07/27 11:38:26;;;;;;;3.20;2.10;;;23.60;29.30;;;;;;5111726;28;20032;-63
2023/07/27 11:40:55;;;;;;;3.33;2.08;;;23.70;29.20;;;;;;5085154;28;20071;-62
2023/07/27 11:43:20;;;;;;;2.35;2.15;;;23.80;29.30;;;;;;5111893;28;20028;-63
2023/07/27 11:45:47;;;;;;;2.35;1.95;;;24.00;29.10;;;;;;5090388;28;20030;-61
2023/07/27 11:48:13;;;;;;;3.00;2.05;;;24.10;29.10;;;;;;5111557;28;20039;-62
2023/07/27 11:50:39;;;;;;;2.30;1.90;;;24.30;29.10;;;;;;5090454;28;20103;-62
2023/07/27 11:53:09;;;;;;;4.50;2.22;;;24.50;29.00;;;;;;5111409;28;20016;-62
2023/07/27 11:55:36;;;;;;;3.78;2.40;;;24.60;29.00;;;;;;5090245;28;20024;-62
2023/07/27 11:58:09;;;;;;;4.28;2.75;;;24.60;28.60;;;;;;5111535;28;20111;-63
2023/07/27 12:00:37;;;;;;;4.38;1.88;;;24.60;28.60;;;;;;5088736;28;20028;-62
2023/07/27 12:03:03;;;;;;;2.75;2.47;;;24.40;28.70;;;;;;5111574;28;20284;-63
2023/07/27 12:05:31;;;;;;;3.70;2.25;;;24.20;28.90;;;;;;5089715;28;20046;-62
2023/07/27 12:07:57;;;;;;;3.05;2.20;;;24.10;29.00;;;;;;5111354;28;20024;-63
2023/07/27 12:10:23;;;;;;;2.30;2.10;;;24.00;29.50;;;;;;5089916;28;20089;-63
2023/07/27 12:12:59;;;;;;;2.05;1.88;;;23.90;30.50;;;;;;5110786;28;20647;-63
2023/07/27 12:15:28;;;;;;;;;;;23.80;31.60;;;;;;5090260;28;20020;-63
2023/07/27 12:17:56;;;;;;;2.60;1.98;;;23.70;32.90;;;;;;5110910;28;19907;-63
2023/07/27 12:20:22;;;;;;;3.00;1.95;;;23.60;31.90;;;;;;5089544;28;20024;-62
2023/07/27 12:22:47;;;;;;;3.25;1.98;;;23.60;32.40;;;;;;5110658;28;20020;-62
2023/07/27 12:25:13;;;;;;;2.42;1.90;;;23.60;32.80;;;;;;5089746;28;20028;-63
2023/07/27 12:27:39;;;;;;;3.55;2.10;;;23.60;33.20;;;;;;5110348;28;20396;-63
2023/07/27 12:30:05;;;;;;;4.15;2.05;;;23.50;33.70;;;;;;5089564;28;20075;-63
2023/07/27 12:32:30;;;;;;;2.17;1.70;;;23.50;34.30;;;;;;5110327;28;20031;-62
2023/07/27 12:34:56;;;;;;;3.28;1.90;;;23.50;34.40;;;;;;5096725;28;20487;-63
2023/07/27 12:37:21;;;;;;;6.55;2.20;;;23.40;34.90;;;;;;5111331;28;20043;-63
2023/07/27 12:39:48;;;;;;;2.30;1.92;;;23.40;35.80;;;;;;5084273;28;20028;-63
2023/07/27 12:42:14;;;;;;;5.15;2.45;;;23.30;36.20;;;;;;5090826;28;20480;-63
2023/07/27 12:44:40;;;;;;;3.58;2.05;;;23.20;37.30;;;;;;5103624;28;20437;-62
2023/07/27 12:47:05;;;;;;;3.58;2.30;;;22.90;38.50;;;;;;5090777;28;20054;-63